Time;durP1;ratioP1;P1;durP2;ratioP2;P2;SDS_P1;SDS_P2;PMS_P1;PMS_P2;Temp;Humidity;BMP_temperature;BMP_pressure;BME280_temperature;BME280_humidity;BME280_pressure;Samples;Min_cycle;Max_cycle;Signal;HPM_P1;HPM_P2
2023/04/28 00:00:49;;;;;;;0.10;0.10;;;8.40;96.20;;;;;;6187976;23;20004;-90
2023/04/28 00:03:15;;;;;;;0.10;0.10;;;;;;;;;;6211310;23;20016;-90
2023/04/28 00:05:41;;;;;;;0.00;0.00;;;;;;;;;;6186526;23;20071;-89
2023/04/28 00:08:07;;;;;;;0.10;0.10;;;;;;;;;;6189697;23;20445;-89
2023/04/28 00:10:33;;;;;;;0.00;0.00;;;8.40;97.10;;;;;;6194250;23;20461;-90
2023/04/28 00:12:59;;;;;;;0.10;0.10;;;;;;;;;;6191715;23;20016;-89
2023/04/28 00:15:25;;;;;;;0.08;0.08;;;;;;;;;;6189742;23;20095;-90
2023/04/28 00:17:52;;;;;;;0.00;0.00;;;8.40;97.80;;;;;;6187401;23;20040;-90
2023/04/28 00:20:17;;;;;;;0.00;0.00;;;8.40;98.30;;;;;;6187055;23;20012;-90
2023/04/28 00:22:43;;;;;;;0.10;0.10;;;8.40;98.20;;;;;;6214524;23;19997;-89
2023/04/28 00:25:08;;;;;;;0.00;0.00;;;8.40;98.50;;;;;;6188846;23;20001;-90
2023/04/28 00:27:35;;;;;;;0.10;0.10;;;8.30;98.80;;;;;;6186552;23;20008;-87
2023/04/28 00:30:00;;;;;;;0.10;0.10;;;8.30;98.50;;;;;;6186750;23;20004;-90
2023/04/28 00:32:27;;;;;;;0.00;0.00;;;;;;;;;;6187094;23;20008;-90
2023/04/28 00:34:52;;;;;;;0.10;0.10;;;;;;;;;;6186050;23;20457;-90
2023/04/28 00:37:19;;;;;;;0.10;0.10;;;;;;;;;;6188084;23;20020;-90
2023/04/28 00:39:46;;;;;;;0.10;0.10;;;;;;;;;;6185254;23;20012;-90
2023/04/28 00:42:12;;;;;;;0.10;0.10;;;8.40;98.60;;;;;;6187891;23;20008;-90
2023/04/28 00:44:39;;;;;;;0.03;0.03;;;;;;;;;;6187221;23;20007;-90
2023/04/28 00:47:05;;;;;;;0.05;0.05;;;;;;;;;;6187822;23;20011;-90
2023/04/28 00:49:32;;;;;;;0.10;0.10;;;8.40;98.50;;;;;;6187585;23;20004;-91
2023/04/28 00:52:03;;;;;;;0.10;0.10;;;8.40;99.00;;;;;;6187542;23;20594;-90
2023/04/28 00:54:29;;;;;;;0.00;0.00;;;8.40;99.30;;;;;;6188520;23;20019;-90
2023/04/28 00:56:55;;;;;;;0.10;0.10;;;8.40;98.80;;;;;;6187039;23;20605;-90
2023/04/28 00:59:20;;;;;;;0.10;0.10;;;8.40;99.30;;;;;;6187590;23;20485;-90
2023/04/28 01:01:46;;;;;;;0.00;0.00;;;8.40;99.90;;;;;;6186970;23;20004;-90
2023/04/28 01:04:11;;;;;;;0.00;0.00;;;8.50;99.20;;;;;;6188944;23;19997;-91
2023/04/28 01:06:37;;;;;;;0.10;0.10;;;;;;;;;;6214855;23;19997;-89
2023/04/28 01:09:05;;;;;;;0.00;0.00;;;;;;;;;;6187285;23;20064;-90
2023/04/28 01:11:31;;;;;;;0.10;0.10;;;;;;;;;;6187350;23;20004;-90
2023/04/28 01:13:58;;;;;;;0.10;0.10;;;8.50;99.70;;;;;;6187707;23;20092;-90
2023/04/28 01:16:25;;;;;;;0.10;0.10;;;;;;;;;;6186785;23;20313;-90
2023/04/28 01:18:51;;;;;;;0.10;0.10;;;8.40;99.60;;;;;;6187517;23;20012;-91
2023/04/28 01:21:27;;;;;;;0.10;0.10;;;8.40;99.90;;;;;;6189082;23;20413;-90
2023/04/28 01:23:54;;;;;;;0.10;0.10;;;8.40;99.90;;;;;;6185953;23;20083;-90
2023/04/28 01:26:19;;;;;;;0.10;0.10;;;8.40;99.90;;;;;;6188907;23;20433;-90
2023/04/28 01:28:45;;;;;;;0.10;0.10;;;8.40;99.90;;;;;;6187209;23;20049;-90
2023/04/28 01:31:10;;;;;;;0.10;0.10;;;8.40;99.90;;;;;;6182463;23;20083;-90
2023/04/28 01:33:35;;;;;;;0.10;0.10;;;8.30;99.90;;;;;;6187045;23;20000;-91
2023/04/28 01:36:01;;;;;;;0.00;0.00;;;8.40;99.90;;;;;;6186217;23;20342;-90
2023/04/28 01:38:26;;;;;;;0.10;0.10;;;8.20;99.90;;;;;;6188729;23;20048;-90
2023/04/28 01:40:54;;;;;;;0.00;0.00;;;8.30;99.90;;;;;;6187721;23;20000;-90
2023/04/28 01:43:20;;;;;;;0.10;0.10;;;;;;;;;;6188088;23;20035;-91
2023/04/28 01:45:45;;;;;;;0.05;0.05;;;8.30;99.90;;;;;;6215028;23;20004;-91
2023/04/28 01:48:11;;;;;;;0.10;0.10;;;;;;;;;;6187888;23;20005;-91
2023/04/28 01:50:37;;;;;;;0.10;0.10;;;;;;;;;;6188321;23;20043;-91
2023/04/28 01:53:02;;;;;;;0.00;0.00;;;8.30;99.90;;;;;;6188398;23;20039;-91
2023/04/28 01:55:28;;;;;;;0.10;0.10;;;8.10;99.90;;;;;;6188146;23;20009;-90
2023/04/28 01:57:53;;;;;;;0.10;0.10;;;8.20;99.90;;;;;;6186157;23;20401;-90
2023/04/28 02:00:19;;;;;;;0.10;0.10;;;8.20;99.90;;;;;;6214610;23;20075;-90
2023/04/28 02:02:45;;;;;;;0.00;0.00;;;;;;;;;;6187108;23;20012;-91
2023/04/28 02:05:11;;;;;;;0.10;0.10;;;8.20;99.90;;;;;;6189702;23;20318;-90
2023/04/28 02:07:36;;;;;;;0.05;0.05;;;;;;;;;;6190783;23;20035;-90
2023/04/28 02:10:03;;;;;;;0.10;0.10;;;;;;;;;;6189823;23;20012;-89
2023/04/28 02:12:28;;;;;;;0.10;0.10;;;8.00;99.90;;;;;;6188707;23;20005;-90
2023/04/28 02:14:54;;;;;;;0.10;0.10;;;;;;;;;;6190334;23;20008;-91
2023/04/28 02:17:20;;;;;;;0.10;0.10;;;;;;;;;;6190388;23;20029;-90
2023/04/28 02:19:45;;;;;;;0.10;0.10;;;8.00;99.90;;;;;;6217017;23;20433;-90
2023/04/28 02:22:11;;;;;;;0.10;0.10;;;8.00;99.90;;;;;;6190806;23;20390;-89
2023/04/28 02:24:37;;;;;;;0.10;0.10;;;7.80;99.90;;;;;;6190803;23;20001;-90
2023/04/28 02:27:04;;;;;;;0.10;0.10;;;7.70;99.90;;;;;;6189378;23;20004;-91
2023/04/28 02:29:30;;;;;;;0.10;0.10;;;7.50;99.90;;;;;;6190833;23;20369;-91
2023/04/28 02:31:56;;;;;;;0.00;0.00;;;7.50;99.90;;;;;;6188449;23;20449;-90
2023/04/28 02:34:21;;;;;;;0.10;0.10;;;7.60;99.90;;;;;;6189709;23;20037;-90
2023/04/28 02:36:47;;;;;;;0.10;0.10;;;7.70;99.90;;;;;;6189444;23;20001;-90
2023/04/28 02:39:12;;;;;;;0.10;0.10;;;7.70;99.90;;;;;;6216178;23;20035;-90
2023/04/28 02:41:38;;;;;;;0.10;0.10;;;7.90;99.90;;;;;;6190023;23;20063;-87
2023/04/28 02:44:04;;;;;;;0.10;0.10;;;7.90;99.90;;;;;;6215973;23;20032;-90
2023/04/28 02:46:29;;;;;;;0.00;0.00;;;7.90;99.90;;;;;;6188660;23;20337;-89
2023/04/28 02:48:55;;;;;;;0.10;0.10;;;8.00;99.90;;;;;;6189475;23;20000;-89
2023/04/28 02:51:20;;;;;;;0.10;0.10;;;8.00;99.90;;;;;;6188498;23;20003;-89
2023/04/28 02:53:46;;;;;;;0.10;0.10;;;8.10;99.90;;;;;;6214349;23;20011;-90
2023/04/28 02:56:11;;;;;;;0.10;0.10;;;8.10;99.90;;;;;;6188616;23;20407;-89
2023/04/28 02:58:37;;;;;;;0.10;0.10;;;8.20;99.90;;;;;;6188262;23;20004;-90
2023/04/28 03:01:02;;;;;;;0.10;0.10;;;8.20;99.90;;;;;;6188005;23;20005;-90
2023/04/28 03:03:28;;;;;;;0.10;0.10;;;;;;;;;;6188025;23;20015;-90
2023/04/28 03:05:55;;;;;;;0.10;0.10;;;8.10;99.90;;;;;;6188202;23;20063;-90
2023/04/28 03:08:21;;;;;;;0.10;0.10;;;8.10;99.90;;;;;;6189115;23;20000;-88
2023/04/28 03:10:47;;;;;;;0.10;0.10;;;8.20;99.90;;;;;;6215227;23;20084;-90
2023/04/28 03:13:12;;;;;;;0.03;0.03;;;8.30;99.90;;;;;;6189287;23;20036;-90
2023/04/28 03:15:38;;;;;;;0.10;0.10;;;8.20;99.90;;;;;;6216874;23;20051;-90
2023/04/28 03:18:03;;;;;;;0.10;0.10;;;8.20;99.90;;;;;;6189940;23;20011;-88
2023/04/28 03:20:29;;;;;;;0.00;0.00;;;8.20;99.90;;;;;;6189840;23;20008;-90
2023/04/28 03:22:54;;;;;;;0.10;0.10;;;8.40;99.90;;;;;;6188800;23;20350;-90
2023/04/28 03:25:20;;;;;;;0.10;0.10;;;8.40;99.90;;;;;;6188838;23;20039;-89
2023/04/28 03:27:45;;;;;;;0.00;0.00;;;8.50;99.90;;;;;;6188465;23;20005;-90
2023/04/28 03:30:11;;;;;;;0.00;0.00;;;8.50;99.90;;;;;;6189451;23;20008;-89
2023/04/28 03:32:37;;;;;;;0.10;0.10;;;8.50;99.90;;;;;;6214826;23;20473;-90
2023/04/28 03:35:02;;;;;;;0.10;0.10;;;8.30;99.90;;;;;;6189099;23;20036;-90
2023/04/28 03:37:28;;;;;;;0.05;0.05;;;;;;;;;;6186954;23;20009;-90
2023/04/28 03:39:54;;;;;;;0.10;0.10;;;;;;;;;;6188345;23;20059;-90
2023/04/28 03:42:20;;;;;;;0.10;0.10;;;;;;;;;;6214522;23;20035;-90
2023/04/28 03:44:46;;;;;;;0.10;0.10;;;;;;;;;;6188519;23;20000;-90
2023/04/28 03:47:12;;;;;;;0.10;0.10;;;;;;;;;;6187089;23;20001;-89
2023/04/28 03:49:37;;;;;;;0.00;0.00;;;8.40;99.90;;;;;;6189725;23;20341;-90
2023/04/28 03:52:03;;;;;;;0.00;0.00;;;;;;;;;;6189168;23;20088;-90
2023/04/28 03:54:30;;;;;;;0.10;0.10;;;;;;;;;;6189535;23;20012;-90
2023/04/28 03:56:56;;;;;;;0.10;0.10;;;8.70;99.90;;;;;;6215085;23;20009;-89
2023/04/28 03:59:22;;;;;;;0.10;0.10;;;8.70;99.90;;;;;;6187530;23;20004;-88
2023/04/28 04:01:47;;;;;;;0.00;0.00;;;8.60;99.90;;;;;;6186753;23;20442;-89
2023/04/28 04:04:13;;;;;;;0.10;0.10;;;8.60;99.90;;;;;;6187593;23;20477;-89
2023/04/28 04:06:38;;;;;;;0.10;0.10;;;8.70;99.90;;;;;;6215669;23;20000;-89
2023/04/28 04:09:04;;;;;;;0.10;0.10;;;8.60;99.90;;;;;;6212919;23;20187;-90
2023/04/28 04:11:30;;;;;;;0.10;0.10;;;8.70;99.90;;;;;;6186164;23;20062;-89
2023/04/28 04:13:55;;;;;;;0.10;0.10;;;8.70;99.90;;;;;;6211920;23;20005;-90
2023/04/28 04:16:21;;;;;;;0.10;0.10;;;8.80;99.90;;;;;;6213719;23;20079;-89
2023/04/28 04:18:46;;;;;;;0.10;0.10;;;8.70;99.90;;;;;;6186538;23;20379;-89
2023/04/28 04:21:12;;;;;;;0.00;0.00;;;8.70;99.90;;;;;;6212865;23;20007;-89
2023/04/28 04:23:38;;;;;;;0.10;0.10;;;;;;;;;;6187360;23;20011;-88
2023/04/28 04:26:03;;;;;;;0.10;0.10;;;8.80;99.90;;;;;;6187289;23;20134;-89
2023/04/28 04:28:29;;;;;;;0.10;0.10;;;8.80;99.90;;;;;;6210760;23;19997;-89
2023/04/28 04:30:54;;;;;;;0.10;0.10;;;8.80;99.90;;;;;;6186922;23;20008;-90
2023/04/28 04:33:20;;;;;;;0.00;0.00;;;8.80;99.90;;;;;;6212123;23;20331;-90
2023/04/28 04:35:46;;;;;;;0.10;0.10;;;8.80;99.90;;;;;;6185414;23;20069;-89
2023/04/28 04:38:12;;;;;;;0.10;0.10;;;8.90;99.90;;;;;;6187845;23;20088;-89
2023/04/28 04:40:37;;;;;;;0.10;0.10;;;8.90;99.90;;;;;;6188596;23;20012;-88
2023/04/28 04:43:02;;;;;;;0.10;0.10;;;8.90;99.90;;;;;;6184689;23;20024;-90
2023/04/28 04:45:28;;;;;;;0.10;0.10;;;;;;;;;;6185655;23;20065;-89
2023/04/28 04:47:54;;;;;;;0.10;0.10;;;;;;;;;;6189747;23;20557;-90
2023/04/28 04:50:20;;;;;;;0.10;0.10;;;;;;;;;;6187120;23;20346;-90
2023/04/28 04:52:46;;;;;;;0.10;0.10;;;9.00;99.90;;;;;;6186540;23;20028;-90
2023/04/28 04:55:12;;;;;;;0.00;0.00;;;;;;;;;;6185286;23;20564;-90
2023/04/28 04:57:37;;;;;;;0.10;0.10;;;9.20;99.90;;;;;;6186759;23;20103;-90
2023/04/28 05:00:04;;;;;;;0.00;0.00;;;9.20;99.90;;;;;;6188670;23;20134;-90
2023/04/28 05:02:29;;;;;;;0.10;0.10;;;9.30;99.90;;;;;;6211085;23;20000;-90
2023/04/28 05:04:55;;;;;;;0.10;0.10;;;;;;;;;;6188784;23;20004;-90
2023/04/28 05:07:21;;;;;;;0.10;0.10;;;;;;;;;;6188792;23;20449;-90
2023/04/28 05:09:47;;;;;;;0.00;0.00;;;;;;;;;;6185340;23;20403;-90
2023/04/28 05:12:13;;;;;;;0.10;0.10;;;;;;;;;;6189060;23;20013;-89
2023/04/28 05:14:39;;;;;;;0.10;0.10;;;;;;;;;;6189305;23;20008;-89
2023/04/28 05:17:05;;;;;;;0.10;0.10;;;9.50;99.90;;;;;;6212628;23;20011;-89
2023/04/28 05:19:30;;;;;;;0.00;0.00;;;9.50;99.90;;;;;;6189177;23;20334;-90
2023/04/28 05:21:55;;;;;;;0.00;0.00;;;9.60;99.90;;;;;;6189884;23;20008;-90
2023/04/28 05:24:24;;;;;;;0.00;0.00;;;9.80;99.90;;;;;;6188918;23;20008;-91
2023/04/28 05:26:50;;;;;;;0.10;0.10;;;9.90;99.90;;;;;;6187899;23;20059;-90
2023/04/28 05:29:16;;;;;;;0.10;0.10;;;;;;;;;;6187802;23;20433;-90
2023/04/28 05:31:42;;;;;;;0.10;0.10;;;10.00;99.90;;;;;;6187303;23;20012;-89
2023/04/28 05:34:07;;;;;;;0.10;0.10;;;10.00;99.90;;;;;;6188588;23;19996;-90
2023/04/28 05:36:33;;;;;;;0.00;0.00;;;10.20;99.60;;;;;;6190550;23;20041;-90
2023/04/28 05:38:59;;;;;;;0.10;0.10;;;10.20;99.80;;;;;;6222910;23;20012;-90
2023/04/28 05:41:25;;;;;;;0.10;0.10;;;;;;;;;;6198415;23;20020;-90
2023/04/28 05:43:50;;;;;;;0.10;0.10;;;10.20;99.90;;;;;;6224942;23;20429;-90
2023/04/28 05:46:16;;;;;;;0.10;0.10;;;10.20;99.90;;;;;;6192434;23;20001;-90
2023/04/28 05:48:42;;;;;;;0.00;0.00;;;10.40;99.90;;;;;;6189883;23;20012;-89
2023/04/28 05:51:07;;;;;;;0.10;0.10;;;10.20;99.40;;;;;;6190579;23;20032;-90
2023/04/28 05:53:33;;;;;;;0.10;0.10;;;;;;;;;;6190642;23;20368;-89
2023/04/28 05:55:59;;;;;;;0.00;0.00;;;;;;;;;;6190003;23;20016;-90
2023/04/28 05:58:25;;;;;;;0.10;0.10;;;;;;;;;;6189671;23;20095;-89
2023/04/28 06:00:52;;;;;;;0.10;0.10;;;;;;;;;;6190311;23;20028;-89
2023/04/28 06:03:18;;;;;;;0.00;0.00;;;;;;;;;;6190471;23;20031;-89
2023/04/28 06:05:44;;;;;;;0.10;0.10;;;10.70;98.90;;;;;;6189259;23;19997;-88
2023/04/28 06:08:10;;;;;;;0.10;0.10;;;;;;;;;;6216577;23;20000;-89
2023/04/28 06:10:36;;;;;;;0.00;0.00;;;;;;;;;;6190452;23;20125;-89
2023/04/28 06:13:03;;;;;;;0.00;0.00;;;10.90;99.90;;;;;;6190731;23;20009;-88
2023/04/28 06:15:34;;;;;;;0.00;0.00;;;11.00;99.90;;;;;;6191669;23;20434;-89
2023/04/28 06:18:01;;;;;;;0.00;0.00;;;;;;;;;;6191535;23;20004;-89
2023/04/28 06:20:29;;;;;;;0.00;0.00;;;11.20;99.40;;;;;;6187602;23;20013;-90
2023/04/28 06:22:55;;;;;;;0.00;0.00;;;;;;;;;;6188988;23;20028;-90
2023/04/28 06:25:33;;;;;;;0.00;0.00;;;11.40;98.80;;;;;;6186998;23;20067;-90
2023/04/28 06:28:25;;;;;;;0.00;0.00;;;11.60;98.60;;;;;;6191610;23;20005;-89
2023/04/28 06:30:51;;;;;;;0.00;0.00;;;;;;;;;;6184127;23;20008;-88
2023/04/28 06:33:41;;;;;;;0.00;0.00;;;11.80;97.00;;;;;;6188732;23;20448;-90
2023/04/28 06:36:12;;;;;;;;;;;12.60;97.60;;;;;;6191684;23;20108;-89
2023/04/28 06:38:42;;;;;;;0.00;0.00;;;12.00;97.30;;;;;;6191359;23;19907;-90
2023/04/28 06:41:08;;;;;;;0.00;0.00;;;;;;;;;;6190112;23;20889;-90
2023/04/28 06:43:37;;;;;;;0.00;0.00;;;;;;;;;;6189749;23;20005;-90
2023/04/28 06:46:05;;;;;;;0.00;0.00;;;;;;;;;;6190408;23;20100;-89
2023/04/28 06:48:34;;;;;;;0.00;0.00;;;12.20;96.90;;;;;;6189930;23;20001;-91
2023/04/28 06:51:00;;;;;;;0.00;0.00;;;;;;;;;;6189996;23;20497;-89
2023/04/28 06:53:28;;;;;;;0.00;0.00;;;;;;;;;;6188602;23;20008;-89
2023/04/28 06:56:35;;;;;;;0.00;0.00;;;12.40;96.70;;;;;;6189365;23;20001;-90
2023/04/28 06:59:30;;;;;;;0.00;0.00;;;12.50;95.40;;;;;;6071068;23;20021;-88
2023/04/28 07:01:56;;;;;;;0.00;0.00;;;;;;;;;;6063966;23;20500;-89
2023/04/28 07:04:22;;;;;;;0.00;0.00;;;;;;;;;;6095690;23;20022;-89
2023/04/28 07:06:47;;;;;;;0.00;0.00;;;;;;;;;;6142129;23;20019;-89
2023/04/28 07:09:14;;;;;;;0.00;0.00;;;;;;;;;;6192527;23;20008;-90
2023/04/28 07:11:40;;;;;;;0.00;0.00;;;12.90;96.30;;;;;;6188734;23;20012;-90
2023/04/28 07:14:07;;;;;;;0.00;0.00;;;12.90;96.50;;;;;;6188948;23;20396;-90
2023/04/28 07:16:32;;;;;;;0.00;0.00;;;13.00;97.10;;;;;;6189904;23;20350;-90
2023/04/28 07:18:58;;;;;;;0.00;0.00;;;13.10;96.60;;;;;;6190426;23;20016;-89
2023/04/28 07:21:23;;;;;;;0.00;0.00;;;13.20;97.00;;;;;;6217468;23;20000;-89
2023/04/28 07:23:49;;;;;;;0.00;0.00;;;13.20;97.10;;;;;;6190915;23;20421;-90
2023/04/28 07:26:17;;;;;;;0.00;0.00;;;13.50;96.90;;;;;;6190396;23;20001;-89
2023/04/28 07:28:46;;;;;;;0.00;0.00;;;;;;;;;;6190140;23;20008;-90
2023/04/28 07:31:12;;;;;;;0.00;0.00;;;;;;;;;;6189792;23;20004;-90
2023/04/28 07:33:38;;;;;;;0.00;0.00;;;;;;;;;;6188918;23;20004;-90
2023/04/28 07:36:07;;;;;;;0.00;0.00;;;;;;;;;;6189991;23;20916;-90
2023/04/28 07:38:36;;;;;;;0.00;0.00;;;13.60;98.10;;;;;;6190315;23;20062;-90
2023/04/28 07:41:02;;;;;;;0.00;0.00;;;13.70;97.80;;;;;;6189354;23;20432;-90
2023/04/28 07:43:28;;;;;;;0.00;0.00;;;;;;;;;;6189498;23;20001;-90
2023/04/28 07:45:55;;;;;;;0.00;0.00;;;;;;;;;;6190189;23;20417;-91
2023/04/28 07:48:20;;;;;;;0.00;0.00;;;;;;;;;;6190710;23;20001;-90
2023/04/28 07:50:46;;;;;;;0.00;0.00;;;13.60;97.40;;;;;;6189471;23;20088;-90
2023/04/28 07:53:12;;;;;;;0.00;0.00;;;;;;;;;;6215661;23;20448;-90
2023/04/28 07:55:40;;;;;;;0.00;0.00;;;;;;;;;;6215937;23;20000;-90
2023/04/28 07:58:06;;;;;;;0.00;0.00;;;13.40;97.70;;;;;;6188087;23;20016;-90
2023/04/28 08:00:32;;;;;;;0.00;0.00;;;13.30;98.50;;;;;;6188081;23;20015;-90
2023/04/28 08:02:57;;;;;;;0.00;0.00;;;13.40;98.80;;;;;;6214152;23;19997;-90
2023/04/28 08:05:23;;;;;;;0.00;0.00;;;;;;;;;;6188155;23;20008;-90
2023/04/28 08:07:49;;;;;;;0.00;0.00;;;;;;;;;;6214581;23;20418;-91
2023/04/28 08:10:15;;;;;;;0.00;0.00;;;;;;;;;;6187830;23;20004;-90
2023/04/28 08:12:40;;;;;;;0.00;0.00;;;13.60;98.10;;;;;;6188633;23;20005;-91
2023/04/28 08:15:08;;;;;;;0.00;0.00;;;13.70;98.20;;;;;;6212116;23;20080;-90
2023/04/28 08:17:34;;;;;;;0.00;0.00;;;13.80;98.40;;;;;;6187954;23;20008;-90
2023/04/28 08:19:59;;;;;;;0.00;0.00;;;13.70;98.10;;;;;;6187032;23;20009;-91
2023/04/28 08:22:25;;;;;;;0.00;0.00;;;13.70;98.00;;;;;;6187951;23;20426;-90
2023/04/28 08:24:51;;;;;;;0.00;0.00;;;;;;;;;;6188011;23;20001;-91
2023/04/28 08:27:17;;;;;;;0.00;0.00;;;;;;;;;;6188599;23;20373;-90
2023/04/28 08:29:43;;;;;;;0.00;0.00;;;;;;;;;;6213079;23;20024;-91
2023/04/28 08:32:08;;;;;;;0.00;0.00;;;14.00;97.50;;;;;;6210838;23;20005;-91
2023/04/28 08:34:34;;;;;;;0.00;0.00;;;;;;;;;;6186243;23;20011;-90
2023/04/28 08:37:01;;;;;;;0.00;0.00;;;;;;;;;;6186308;23;20005;-90
2023/04/28 08:39:27;;;;;;;0.00;0.00;;;;;;;;;;6186003;23;20390;-91
2023/04/28 08:41:52;;;;;;;0.00;0.00;;;14.10;97.60;;;;;;6188118;23;20087;-90
2023/04/28 08:44:18;;;;;;;0.00;0.00;;;14.10;97.50;;;;;;6187581;23;20000;-91
2023/04/28 08:46:45;;;;;;;0.00;0.00;;;14.10;97.70;;;;;;6215407;23;20004;-91
2023/04/28 08:49:16;;;;;;;0.00;0.00;;;14.20;97.10;;;;;;6187022;23;20000;-91
2023/04/28 08:51:58;;;;;;;0.00;0.00;;;14.20;97.30;;;;;;6186712;23;20136;-91
2023/04/28 08:54:34;;;;;;;0.00;0.00;;;14.20;97.50;;;;;;6190047;23;20000;-90
2023/04/28 08:57:01;;;;;;;0.00;0.00;;;14.30;97.80;;;;;;6188693;23;20011;-91
2023/04/28 08:59:27;;;;;;;0.00;0.00;;;;;;;;;;6188439;23;20008;-91
2023/04/28 09:01:52;;;;;;;0.00;0.00;;;14.40;96.80;;;;;;6187108;23;20007;-90
2023/04/28 09:04:18;;;;;;;0.00;0.00;;;;;;;;;;6185154;23;20044;-90
2023/04/28 09:06:47;;;;;;;0.00;0.00;;;;;;;;;;6188766;23;20008;-91
2023/04/28 09:09:23;;;;;;;0.00;0.00;;;14.20;97.60;;;;;;6216346;23;20053;-91
2023/04/28 09:11:58;;;;;;;0.00;0.00;;;14.20;97.70;;;;;;6215654;23;20005;-91
2023/04/28 09:14:24;;;;;;;0.00;0.00;;;;;;;;;;6189290;23;20449;-91
2023/04/28 09:16:50;;;;;;;0.00;0.00;;;14.00;98.00;;;;;;6188886;23;20117;-91
2023/04/28 09:19:16;;;;;;;0.00;0.00;;;;;;;;;;6188900;23;20032;-92
2023/04/28 09:22:00;;;;;;;0.00;0.00;;;14.10;98.70;;;;;;6214693;23;20000;-90
2023/04/28 09:24:32;;;;;;;0.00;0.00;;;16.20;99.60;;;;;;6189102;23;20001;-90
2023/04/28 09:27:03;;;;;;;0.00;0.00;;;14.20;99.00;;;;;;6188925;23;20028;-90
2023/04/28 09:29:30;;;;;;;0.00;0.00;;;14.30;99.30;;;;;;6186045;23;20147;-91
2023/04/28 09:32:20;;;;;;;0.00;0.00;;;14.30;99.20;;;;;;6182040;23;20016;-89
2023/04/28 09:34:46;;;;;;;0.00;0.00;;;;;;;;;;6185603;23;20012;-89
2023/04/28 09:37:23;;;;;;;0.00;0.00;;;14.40;99.20;;;;;;6187032;23;20008;-90
2023/04/28 09:39:50;;;;;;;0.00;0.00;;;14.40;99.20;;;;;;6189775;23;20068;-89
2023/04/28 09:42:37;;;;;;;0.00;0.00;;;14.50;99.40;;;;;;6190420;23;20008;-90
2023/04/28 09:45:04;;;;;;;0.00;0.00;;;14.60;97.90;;;;;;6188976;23;19997;-89
2023/04/28 09:47:32;;;;;;;0.00;0.00;;;;;;;;;;6188673;23;20445;-90
2023/04/28 09:50:05;;;;;;;0.00;0.00;;;14.80;97.20;;;;;;6190022;23;20063;-89
2023/04/28 09:52:35;;;;;;;0.00;0.00;;;14.80;96.00;;;;;;6189243;23;20086;-90
2023/04/28 09:55:03;;;;;;;0.00;0.00;;;14.80;96.80;;;;;;6189468;23;20004;-91
2023/04/28 09:57:31;;;;;;;0.00;0.00;;;14.60;96.20;;;;;;6189531;23;20015;-89
2023/04/28 09:59:57;;;;;;;0.00;0.00;;;;;;;;;;6215257;23;20501;-90
2023/04/28 10:02:23;;;;;;;0.00;0.00;;;;;;;;;;6186911;23;20533;-90
2023/04/28 10:04:50;;;;;;;0.00;0.00;;;14.30;97.70;;;;;;6188058;23;20005;-90
2023/04/28 10:07:16;;;;;;;0.00;0.00;;;;;;;;;;6188177;23;20047;-90
2023/04/28 10:09:49;;;;;;;0.00;0.00;;;14.40;96.60;;;;;;6189537;23;20012;-90
2023/04/28 10:12:15;;;;;;;0.00;0.00;;;;;;;;;;6188179;23;20027;-89
2023/04/28 10:14:41;;;;;;;0.00;0.00;;;15.00;97.30;;;;;;6189196;23;20055;-90
2023/04/28 10:17:07;;;;;;;0.00;0.00;;;;;;;;;;6188543;23;20442;-89
2023/04/28 10:19:34;;;;;;;0.00;0.00;;;15.30;97.10;;;;;;6190146;23;20009;-90
2023/04/28 10:22:34;;;;;;;0.00;0.00;;;15.80;96.80;;;;;;6191121;23;20004;-91
2023/04/28 10:25:25;;;;;;;0.00;0.00;;;15.80;97.00;;;;;;6191542;23;20004;-90
2023/04/28 10:27:51;;;;;;;0.00;0.00;;;;;;;;;;6190162;23;20023;-90
2023/04/28 10:30:26;;;;;;;0.00;0.00;;;16.50;96.60;;;;;;6191364;23;20009;-90
2023/04/28 10:33:21;;;;;;;0.00;0.00;;;16.50;96.80;;;;;;6189961;23;20042;-90
2023/04/28 10:35:47;;;;;;;0.00;0.00;;;16.40;97.30;;;;;;6166148;23;20004;-90
2023/04/28 10:38:22;;;;;;;0.00;0.00;;;16.10;98.90;;;;;;6191648;23;20441;-91
2023/04/28 10:41:01;;;;;;;0.00;0.00;;;15.80;99.50;;;;;;6188488;23;20009;-90
2023/04/28 10:43:30;;;;;;;0.00;0.00;;;18.70;99.90;;;;;;6212530;23;20005;-90
2023/04/28 10:45:59;;;;;;;0.00;0.00;;;;;;;;;;6185142;23;20012;-88
2023/04/28 10:48:25;;;;;;;0.00;0.00;;;;;;;;;;6186766;23;20000;-89
2023/04/28 10:51:03;;;;;;;0.00;0.00;;;15.50;99.20;;;;;;6187277;23;20015;-90
2023/04/28 10:53:44;;;;;;;0.00;0.00;;;15.20;99.50;;;;;;6188632;23;20016;-91
2023/04/28 10:56:15;;;;;;;0.00;0.00;;;15.10;99.80;;;;;;6188806;23;20369;-91
2023/04/28 10:58:42;;;;;;;0.00;0.00;;;15.40;99.30;;;;;;6184740;23;20473;-90
2023/04/28 11:01:20;;;;;;;0.00;0.00;;;15.60;99.90;;;;;;6192233;23;20424;-91
2023/04/28 11:03:50;;;;;;;0.00;0.00;;;15.70;99.90;;;;;;6196542;23;20008;-91
2023/04/28 11:06:26;;;;;;;0.00;0.00;;;15.50;99.90;;;;;;6197144;23;20000;-90
2023/04/28 11:09:11;;;;;;;0.00;0.00;;;15.40;99.30;;;;;;6194188;23;20001;-89
2023/04/28 11:11:38;;;;;;;0.00;0.00;;;15.30;98.50;;;;;;6189760;23;20458;-90
2023/04/28 11:14:16;;;;;;;0.00;0.00;;;15.30;99.10;;;;;;6187373;23;20019;-90
2023/04/28 11:16:52;;;;;;;0.00;0.00;;;15.30;98.50;;;;;;6187453;23;20027;-90
2023/04/28 11:19:26;;;;;;;0.00;0.00;;;15.10;98.90;;;;;;6188012;23;20012;-90
2023/04/28 11:21:54;;;;;;;0.00;0.00;;;15.10;98.70;;;;;;6187849;23;20369;-91
2023/04/28 11:24:21;;;;;;;0.00;0.00;;;15.30;98.80;;;;;;6189429;23;20389;-89
2023/04/28 11:26:47;;;;;;;0.00;0.00;;;15.30;98.60;;;;;;6189743;23;20434;-90
2023/04/28 11:29:14;;;;;;;0.00;0.00;;;;;;;;;;6187853;23;20015;-91
2023/04/28 11:31:40;;;;;;;0.00;0.00;;;15.60;98.40;;;;;;6189454;23;20024;-90
2023/04/28 11:34:13;;;;;;;0.00;0.00;;;15.60;98.60;;;;;;6187531;23;20337;-90
2023/04/28 11:36:39;;;;;;;0.00;0.00;;;15.60;98.30;;;;;;6214343;23;20020;-91
2023/04/28 11:39:09;;;;;;;0.00;0.00;;;15.80;97.20;;;;;;6214416;23;20005;-90
2023/04/28 11:41:40;;;;;;;0.00;0.00;;;16.20;97.60;;;;;;6214220;23;20036;-91
2023/04/28 11:44:16;;;;;;;0.00;0.00;;;16.20;97.40;;;;;;6187069;23;20394;-90
2023/04/28 11:46:49;;;;;;;0.00;0.00;;;16.40;97.00;;;;;;6188200;23;20095;-91
2023/04/28 11:49:17;;;;;;;0.00;0.00;;;16.70;96.60;;;;;;6186293;23;20028;-90
2023/04/28 11:51:48;;;;;;;0.00;0.00;;;17.10;96.90;;;;;;6187179;23;20005;-90
2023/04/28 11:54:27;;;;;;;0.00;0.00;;;17.20;97.20;;;;;;6188614;23;20005;-90
2023/04/28 11:56:55;;;;;;;0.00;0.00;;;17.30;97.50;;;;;;6192163;23;20009;-89
2023/04/28 11:59:29;;;;;;;0.00;0.00;;;17.40;97.70;;;;;;6190568;23;20527;-89
2023/04/28 12:02:01;;;;;;;0.00;0.00;;;17.40;97.40;;;;;;6188849;23;20315;-89
2023/04/28 12:04:27;;;;;;;0.00;0.00;;;;;;;;;;6190760;23;20016;-87
2023/04/28 12:07:15;;;;;;;0.00;0.00;;;17.20;97.50;;;;;;6191309;23;20009;-88
2023/04/28 12:09:46;;;;;;;0.00;0.00;;;17.30;98.10;;;;;;6220122;23;20009;-88
2023/04/28 12:12:28;;;;;;;0.00;0.00;;;17.20;98.30;;;;;;6194635;23;20009;-89
2023/04/28 12:15:05;;;;;;;0.00;0.00;;;17.30;98.20;;;;;;6192847;23;20008;-90
2023/04/28 12:17:32;;;;;;;0.00;0.00;;;17.60;97.70;;;;;;6193300;23;20001;-88
2023/04/28 12:20:00;;;;;;;0.00;0.00;;;17.80;97.90;;;;;;6219628;23;20061;-88
2023/04/28 12:22:27;;;;;;;0.00;0.00;;;17.80;98.10;;;;;;6192998;23;20051;-89
2023/04/28 12:25:07;;;;;;;0.00;0.00;;;17.90;98.30;;;;;;6193515;23;20349;-88
2023/04/28 12:27:34;;;;;;;0.00;0.00;;;18.20;97.90;;;;;;6193731;23;20015;-89
2023/04/28 12:30:00;;;;;;;0.00;0.00;;;20.40;98.80;;;;;;6193479;23;20083;-91
2023/04/28 12:32:40;;;;;;;0.00;0.00;;;18.40;96.90;;;;;;6192686;23;20425;-90
2023/04/28 12:35:16;;;;;;;0.00;0.00;;;18.10;97.10;;;;;;6192684;23;20009;-90
2023/04/28 12:37:57;;;;;;;0.00;0.00;;;18.00;97.70;;;;;;6194150;23;20004;-89
2023/04/28 12:40:23;;;;;;;0.00;0.00;;;;;;;;;;6191163;23;20104;-90
2023/04/28 12:42:49;;;;;;;0.00;0.00;;;;;;;;;;6192011;23;20001;-90
2023/04/28 12:45:16;;;;;;;0.00;0.00;;;;;;;;;;6192103;23;20020;-91
2023/04/28 12:47:42;;;;;;;0.00;0.00;;;17.60;97.80;;;;;;6191646;23;20381;-90
2023/04/28 12:50:13;;;;;;;0.00;0.00;;;17.60;98.30;;;;;;6189575;23;20024;-90
2023/04/28 12:52:39;;;;;;;0.00;0.00;;;;;;;;;;6191138;23;20054;-88
2023/04/28 12:55:05;;;;;;;0.00;0.00;;;;;;;;;;6190734;23;20012;-90
2023/04/28 12:57:38;;;;;;;0.00;0.00;;;;;;;;;;6191214;23;20034;-91
2023/04/28 13:00:05;;;;;;;0.00;0.00;;;;;;;;;;6190087;23;20004;-88
2023/04/28 13:02:32;;;;;;;0.00;0.00;;;;;;;;;;6167213;23;20100;-90
2023/04/28 13:05:01;;;;;;;0.00;0.00;;;;;;;;;;6191753;23;20008;-90
2023/04/28 13:07:34;;;;;;;0.00;0.00;;;17.50;98.70;;;;;;6191122;23;20005;-90
2023/04/28 13:10:03;;;;;;;0.00;0.00;;;;;;;;;;6191738;23;20005;-89
2023/04/28 13:12:32;;;;;;;0.00;0.00;;;17.50;98.80;;;;;;6192438;23;20012;-89
2023/04/28 13:15:01;;;;;;;0.00;0.00;;;17.50;99.10;;;;;;6190968;23;20267;-89
2023/04/28 13:17:33;;;;;;;0.00;0.00;;;17.60;98.90;;;;;;6193557;23;20009;-90
2023/04/28 13:20:00;;;;;;;0.00;0.00;;;;;;;;;;6191900;23;20008;-90
2023/04/28 13:22:43;;;;;;;0.00;0.00;;;17.70;99.30;;;;;;6192332;23;20000;-90
2023/04/28 13:25:28;;;;;;;0.00;0.00;;;17.80;98.70;;;;;;6193306;23;20001;-90
2023/04/28 13:28:00;;;;;;;0.00;0.00;;;17.90;98.90;;;;;;6191173;23;20079;-88
2023/04/28 13:30:26;;;;;;;0.00;0.00;;;;;;;;;;6192357;23;20096;-90